createdAt,value
2017-09-04T00:01:42.709Z,87.90
2017-09-04T00:04:10.146Z,87.70
2017-09-04T00:06:37.612Z,87.00
2017-09-04T00:09:05.079Z,86.80
2017-09-04T00:11:32.472Z,86.50
2017-09-04T00:13:59.920Z,86.50
2017-09-04T00:16:27.344Z,86.60
2017-09-04T00:18:54.789Z,86.40
2017-09-04T00:21:22.238Z,86.50
2017-09-04T00:23:49.649Z,86.20
2017-09-04T00:26:17.081Z,85.60
2017-09-04T00:28:44.516Z,85.80
2017-09-04T00:31:11.959Z,86.30
2017-09-04T00:33:39.396Z,86.60
2017-09-04T00:36:08.874Z,86.60
2017-09-04T00:38:36.313Z,86.30
2017-09-04T00:41:03.739Z,86.40
2017-09-04T00:43:31.188Z,86.20
2017-09-04T00:46:01.789Z,86.70
2017-09-04T00:48:29.223Z,86.60
2017-09-04T00:50:56.648Z,86.50
2017-09-04T00:53:24.088Z,86.70
2017-09-04T00:55:51.518Z,86.30
2017-09-04T00:58:18.958Z,86.60
2017-09-04T01:00:46.420Z,87.00
2017-09-04T01:03:13.854Z,87.20
2017-09-04T01:05:41.298Z,87.70
2017-09-04T01:08:08.738Z,87.30
2017-09-04T01:10:36.173Z,87.60
2017-09-04T01:13:03.618Z,87.80
2017-09-04T01:15:31.060Z,87.30
2017-09-04T01:17:58.499Z,87.00
2017-09-04T01:20:25.950Z,87.20
2017-09-04T01:22:53.389Z,87.00
2017-09-04T01:25:20.828Z,87.00
2017-09-04T01:27:48.264Z,87.20
2017-09-04T01:30:16.736Z,87.10
2017-09-04T01:32:44.938Z,86.30
2017-09-04T01:35:15.441Z,86.30
2017-09-04T01:37:42.858Z,86.30
2017-09-04T01:40:10.287Z,86.50
2017-09-04T01:42:37.717Z,86.30
2017-09-04T01:45:05.152Z,86.40
2017-09-04T01:47:32.579Z,86.30
2017-09-04T01:50:00.013Z,86.10
2017-09-04T01:52:27.448Z,86.00
2017-09-04T01:54:54.874Z,86.50
2017-09-04T01:57:22.301Z,86.90
2017-09-04T01:59:49.738Z,87.20
2017-09-04T02:02:17.177Z,87.20
2017-09-04T02:04:44.622Z,87.40
2017-09-04T02:07:12.056Z,87.00
2017-09-04T02:09:39.507Z,87.20
2017-09-04T02:12:06.932Z,87.50
2017-09-04T02:14:34.373Z,87.70
2017-09-04T02:17:01.817Z,88.00
2017-09-04T02:19:29.249Z,87.70
2017-09-04T02:22:02.599Z,88.10
2017-09-04T02:24:30.049Z,88.50
2017-09-04T02:27:03.868Z,88.70
2017-09-04T02:29:31.303Z,88.70
2017-09-04T02:32:02.603Z,88.40
2017-09-04T02:34:30.026Z,88.20
2017-09-04T02:36:57.468Z,88.30
2017-09-04T02:39:24.900Z,87.30
2017-09-04T02:41:52.430Z,87.20
2017-09-04T02:44:19.867Z,86.80
2017-09-04T02:46:47.297Z,86.80
2017-09-04T02:49:14.726Z,86.90
2017-09-04T02:51:42.164Z,87.00
2017-09-04T02:54:09.632Z,86.90
2017-09-04T02:56:37.071Z,87.10
2017-09-04T02:59:04.500Z,87.30
2017-09-04T03:01:31.939Z,87.60
2017-09-04T03:03:59.372Z,87.30
2017-09-04T03:06:26.840Z,87.10
2017-09-04T03:08:54.259Z,87.20
2017-09-04T03:11:21.705Z,87.50
2017-09-04T03:13:49.132Z,87.40
2017-09-04T03:16:16.576Z,87.10
2017-09-04T03:18:44.001Z,87.10
2017-09-04T03:21:11.444Z,86.60
2017-09-04T03:23:38.888Z,86.50
2017-09-04T03:26:06.340Z,86.60
2017-09-04T03:28:33.772Z,86.50
2017-09-04T03:31:01.231Z,86.40
2017-09-04T03:33:28.652Z,87.60
2017-09-04T03:35:56.083Z,87.90
2017-09-04T03:38:23.500Z,87.60
2017-09-04T03:40:50.941Z,86.60
2017-09-04T03:43:18.359Z,87.60
2017-09-04T03:45:45.816Z,87.70
2017-09-04T03:48:13.240Z,87.80
2017-09-04T03:50:40.687Z,88.10
2017-09-04T03:53:08.123Z,88.50
2017-09-04T03:55:35.548Z,88.50
2017-09-04T03:58:02.984Z,89.00
2017-09-04T04:00:30.412Z,89.50
2017-09-04T04:02:57.838Z,89.70
2017-09-04T04:05:25.256Z,89.70
2017-09-04T04:07:52.683Z,90.00
2017-09-04T04:10:22.112Z,90.20
2017-09-04T04:12:49.545Z,90.30
2017-09-04T04:15:17.002Z,90.10
2017-09-04T04:17:44.407Z,90.00
2017-09-04T04:20:11.836Z,89.40
2017-09-04T04:22:39.264Z,89.80
2017-09-04T04:25:06.692Z,89.30
2017-09-04T04:27:34.133Z,89.30
2017-09-04T04:30:01.552Z,89.40
2017-09-04T04:32:28.990Z,89.30
2017-09-04T04:34:56.408Z,88.80
2017-09-04T04:37:23.835Z,89.30
2017-09-04T04:39:51.269Z,89.20
2017-09-04T04:42:18.702Z,89.10
2017-09-04T04:44:46.128Z,89.20
2017-09-04T04:47:13.570Z,89.20
2017-09-04T04:49:40.995Z,89.20
2017-09-04T04:52:08.429Z,89.80
2017-09-04T04:54:38.107Z,90.00
2017-09-04T04:57:05.522Z,89.50
2017-09-04T04:59:32.951Z,89.70
2017-09-04T05:02:01.380Z,89.30
2017-09-04T05:04:28.822Z,89.30
2017-09-04T05:06:56.241Z,89.50
2017-09-04T05:09:23.666Z,89.40
2017-09-04T05:11:51.096Z,89.30
2017-09-04T05:14:18.525Z,89.30
2017-09-04T05:16:45.947Z,89.20
2017-09-04T05:19:14.312Z,89.20
2017-09-04T05:21:41.736Z,89.40
2017-09-04T05:24:09.177Z,88.60
2017-09-04T05:26:36.611Z,88.50
2017-09-04T05:29:04.055Z,88.80
2017-09-04T05:31:32.505Z,89.10
2017-09-04T05:33:59.948Z,88.90
2017-09-04T05:36:27.371Z,88.80
2017-09-04T05:38:54.811Z,89.10
2017-09-04T05:41:22.248Z,88.80
2017-09-04T05:43:49.692Z,88.90
2017-09-04T05:46:17.127Z,88.90
2017-09-04T05:48:44.604Z,89.40
2017-09-04T05:51:12.031Z,89.10
2017-09-04T05:53:39.526Z,88.80
2017-09-04T05:56:06.952Z,88.70
2017-09-04T05:58:34.392Z,88.90
2017-09-04T06:01:01.816Z,88.70
2017-09-04T06:03:29.248Z,88.10
2017-09-04T06:05:56.685Z,88.60
2017-09-04T06:08:24.116Z,88.80
2017-09-04T06:10:51.552Z,88.80
2017-09-04T06:13:18.990Z,88.20
2017-09-04T06:15:49.912Z,87.80
2017-09-04T06:18:17.336Z,88.30
2017-09-04T06:20:44.779Z,87.90
2017-09-04T06:23:12.208Z,87.70
2017-09-04T06:25:39.653Z,87.70
2017-09-04T06:28:07.084Z,87.70
2017-09-04T06:30:34.524Z,87.80
2017-09-04T06:33:01.950Z,87.60
2017-09-04T06:35:29.380Z,88.30
2017-09-04T06:37:56.813Z,87.40
2017-09-04T06:40:24.238Z,87.70
2017-09-04T06:42:51.679Z,87.70
2017-09-04T06:45:19.119Z,88.00
2017-09-04T06:47:46.539Z,87.70
2017-09-04T06:50:13.972Z,87.30
2017-09-04T06:52:41.406Z,87.20
2017-09-04T06:55:08.844Z,86.90
2017-09-04T06:57:36.274Z,86.50
2017-09-04T07:00:03.725Z,87.50
2017-09-04T07:02:31.149Z,87.30
2017-09-04T07:04:58.576Z,87.50
2017-09-04T07:07:26.047Z,86.10
2017-09-04T07:09:53.483Z,84.20
2017-09-04T07:12:20.902Z,83.60
2017-09-04T07:14:48.332Z,83.70
2017-09-04T07:17:15.759Z,83.00
2017-09-04T07:19:43.184Z,82.40
2017-09-04T07:22:10.615Z,83.30
2017-09-04T07:24:38.044Z,82.90
2017-09-04T07:27:05.692Z,82.30
2017-09-04T07:29:33.112Z,82.00
2017-09-04T07:32:00.558Z,81.70
2017-09-04T07:34:27.984Z,81.20
2017-09-04T07:36:55.422Z,79.70
2017-09-04T07:39:22.843Z,79.00
2017-09-04T07:41:50.275Z,79.20
2017-09-04T07:44:17.688Z,77.50
2017-09-04T07:46:45.133Z,75.30
2017-09-04T07:49:12.557Z,73.60
2017-09-04T07:51:39.990Z,72.10
2017-09-04T07:54:07.411Z,72.00
2017-09-04T07:56:34.837Z,70.20
2017-09-04T07:59:02.288Z,70.60
2017-09-04T08:01:29.724Z,71.90
2017-09-04T08:03:57.139Z,69.80
2017-09-04T08:06:24.564Z,70.60
2017-09-04T08:08:51.992Z,68.10
2017-09-04T08:11:19.422Z,66.10
2017-09-04T08:13:46.873Z,66.00
2017-09-04T08:16:14.279Z,67.00
2017-09-04T08:18:41.699Z,65.10
2017-09-04T08:21:09.136Z,65.60
2017-09-04T08:23:36.556Z,65.10
2017-09-04T08:26:03.991Z,65.80
2017-09-04T08:28:31.422Z,66.70
2017-09-04T08:30:58.848Z,68.70
2017-09-04T08:33:26.277Z,68.00
2017-09-04T08:35:53.691Z,66.00
2017-09-04T08:38:21.117Z,64.70
2017-09-04T08:40:53.469Z,67.10
2017-09-04T08:43:20.900Z,65.70
2017-09-04T08:45:48.316Z,65.40
2017-09-04T08:48:15.748Z,65.90
2017-09-04T08:50:43.172Z,65.70
2017-09-04T08:53:10.613Z,64.50
2017-09-04T08:55:38.036Z,64.60
2017-09-04T08:58:06.491Z,65.00
2017-09-04T09:00:33.917Z,67.50
2017-09-04T09:03:01.354Z,64.40
2017-09-04T09:05:28.767Z,64.40
2017-09-04T09:07:56.190Z,64.60
2017-09-04T09:10:23.621Z,63.00
2017-09-04T09:12:51.051Z,61.70
2017-09-04T09:15:18.517Z,61.10
2017-09-04T09:17:45.928Z,60.30
2017-09-04T09:20:13.347Z,61.30
2017-09-04T09:22:40.776Z,60.90
2017-09-04T09:25:08.216Z,60.90
2017-09-04T09:27:36.677Z,59.50
2017-09-04T09:30:04.109Z,59.10
2017-09-04T09:32:31.530Z,59.40
2017-09-04T09:34:58.957Z,59.80
2017-09-04T09:37:28.356Z,58.30
2017-09-04T09:39:55.792Z,59.00
2017-09-04T09:42:23.229Z,57.90
2017-09-04T09:44:50.660Z,58.20
2017-09-04T09:47:18.088Z,59.20
2017-09-04T09:49:45.539Z,58.70
2017-09-04T09:52:12.970Z,57.20
2017-09-04T09:54:40.408Z,55.20
2017-09-04T09:57:07.827Z,53.80
2017-09-04T09:59:35.281Z,52.80
2017-09-04T10:02:02.683Z,55.40
2017-09-04T10:04:30.117Z,55.10
2017-09-04T10:06:57.545Z,55.10
2017-09-04T10:09:24.972Z,55.80
2017-09-04T10:11:54.392Z,59.30
2017-09-04T10:14:21.822Z,58.10
2017-09-04T10:16:49.239Z,53.40
2017-09-04T10:19:16.668Z,51.60
2017-09-04T10:21:44.092Z,52.00
2017-09-04T10:24:11.530Z,53.00
2017-09-04T10:26:38.956Z,52.30
2017-09-04T10:29:06.380Z,52.40
2017-09-04T10:31:33.817Z,56.10
2017-09-04T10:34:01.258Z,55.00
2017-09-04T10:36:28.691Z,54.40
2017-09-04T10:38:56.124Z,48.50
2017-09-04T10:41:23.576Z,48.80
2017-09-04T10:43:51.032Z,48.10
2017-09-04T10:46:18.489Z,48.00
2017-09-04T10:48:45.912Z,47.60
2017-09-04T10:51:15.372Z,49.80
2017-09-04T10:53:42.788Z,52.90
2017-09-04T10:56:10.215Z,49.30
2017-09-04T10:58:37.632Z,45.50
2017-09-04T11:01:05.056Z,46.40
2017-09-04T11:03:32.740Z,46.70
2017-09-04T11:06:00.162Z,47.00
2017-09-04T11:08:27.587Z,46.40
2017-09-04T11:10:55.015Z,49.30
2017-09-04T11:13:22.453Z,50.00
2017-09-04T11:15:49.888Z,46.20
2017-09-04T11:18:17.308Z,44.90
2017-09-04T11:20:44.744Z,44.30
2017-09-04T11:23:12.171Z,44.00
2017-09-04T11:25:39.609Z,45.10
2017-09-04T11:28:07.041Z,45.60
2017-09-04T11:30:34.468Z,49.90
2017-09-04T11:33:01.917Z,45.50
2017-09-04T11:35:30.300Z,49.40
2017-09-04T11:37:58.681Z,49.30
2017-09-04T11:40:26.132Z,48.70
2017-09-04T11:42:53.580Z,44.40
2017-09-04T11:45:21.000Z,49.40
2017-09-04T11:47:48.436Z,44.70
2017-09-04T11:50:17.803Z,46.40
2017-09-04T11:52:45.236Z,47.70
2017-09-04T11:55:12.672Z,53.90
2017-09-04T11:57:40.108Z,52.60
2017-09-04T12:00:07.541Z,50.70
2017-09-04T12:02:35.911Z,49.70
2017-09-04T12:05:04.284Z,45.80
2017-09-04T12:07:35.436Z,48.80
2017-09-04T12:10:02.927Z,45.80
2017-09-04T12:12:30.370Z,46.80
2017-09-04T12:15:16.784Z,46.70
2017-09-04T12:17:46.180Z,47.30
2017-09-04T12:20:13.604Z,47.50
2017-09-04T12:22:41.092Z,46.90
2017-09-04T12:25:08.502Z,47.50
2017-09-04T12:27:35.925Z,47.90
2017-09-04T12:30:04.365Z,48.90
2017-09-04T12:32:31.788Z,48.10
2017-09-04T12:34:59.232Z,49.80
2017-09-04T12:37:26.656Z,49.50
2017-09-04T12:39:54.088Z,50.30
2017-09-04T12:42:21.520Z,47.50
2017-09-04T12:44:48.956Z,48.40
2017-09-04T12:47:16.389Z,47.50
2017-09-04T12:49:43.826Z,48.20
2017-09-04T12:52:11.257Z,46.80
2017-09-04T12:54:38.715Z,46.90
2017-09-04T12:57:06.120Z,46.40
2017-09-04T12:59:33.556Z,49.50
2017-09-04T13:02:00.992Z,54.10
2017-09-04T13:04:28.448Z,47.30
2017-09-04T13:06:55.885Z,46.20
2017-09-04T13:09:23.328Z,49.20
2017-09-04T13:15:00.318Z,47.30
2017-09-04T13:20:46.092Z,48.80
2017-09-04T13:23:19.149Z,47.60
2017-09-04T13:25:58.205Z,47.00
2017-09-04T13:28:31.380Z,45.80
2017-09-04T13:31:10.445Z,48.30
2017-09-04T13:33:45.308Z,46.70
2017-09-04T13:36:18.528Z,47.80
2017-09-04T13:41:59.347Z,53.70
2017-09-04T13:44:32.475Z,53.70
2017-09-04T13:47:05.604Z,49.00
2017-09-04T13:49:44.860Z,51.00
2017-09-04T13:52:17.945Z,47.80
2017-09-04T13:54:51.072Z,47.90
2017-09-04T13:57:26.939Z,49.00
2017-09-04T13:59:58.934Z,51.90
2017-09-04T14:02:32.056Z,50.30
2017-09-04T14:08:07.424Z,50.70
2017-09-04T14:10:47.492Z,49.60
2017-09-04T14:13:19.944Z,48.40
2017-09-04T14:15:53.009Z,47.90
2017-09-04T14:18:20.435Z,47.90
2017-09-04T14:20:47.855Z,50.50
2017-09-04T14:23:15.287Z,48.70
2017-09-04T14:25:42.717Z,50.60
2017-09-04T14:28:10.164Z,46.40
2017-09-04T14:30:37.645Z,49.10
2017-09-04T14:33:05.090Z,50.50
2017-09-04T14:35:32.632Z,51.60
2017-09-04T14:38:00.068Z,50.60
2017-09-04T14:43:41.482Z,48.70
2017-09-04T14:46:22.097Z,50.90
2017-09-04T14:48:49.528Z,50.60
2017-09-04T14:51:16.972Z,49.20
2017-09-04T14:53:44.403Z,50.80
2017-09-04T14:56:11.848Z,48.90
2017-09-04T14:58:39.652Z,50.40
2017-09-04T15:01:07.064Z,50.80
2017-09-04T15:03:34.557Z,50.80
2017-09-04T15:06:01.980Z,52.70
2017-09-04T15:08:29.429Z,51.00
2017-09-04T15:11:02.051Z,53.60
2017-09-04T15:13:29.744Z,54.90
2017-09-04T15:15:57.179Z,54.60
2017-09-04T15:18:24.628Z,56.10
2017-09-04T15:21:06.638Z,55.30
2017-09-04T15:23:34.070Z,56.70
2017-09-04T15:26:01.492Z,56.80
2017-09-04T15:28:28.920Z,57.30
2017-09-04T15:30:56.404Z,57.40
2017-09-04T15:33:23.829Z,56.60
2017-09-04T15:35:51.295Z,55.20
2017-09-04T15:38:18.720Z,58.30
2017-09-04T15:40:46.213Z,58.50
2017-09-04T15:43:13.667Z,58.00
2017-09-04T15:45:41.139Z,57.90
2017-09-04T15:48:08.593Z,58.60
2017-09-04T15:50:36.048Z,56.40
2017-09-04T15:53:03.500Z,60.00
2017-09-04T15:55:30.936Z,59.10
2017-09-04T15:57:58.362Z,59.40
2017-09-04T16:00:25.811Z,60.50
2017-09-04T16:02:53.276Z,59.60
2017-09-04T16:05:23.139Z,59.80
2017-09-04T16:07:56.064Z,62.10
2017-09-04T16:10:27.307Z,63.40
2017-09-04T16:12:59.152Z,63.80
2017-09-04T16:15:26.587Z,60.00
2017-09-04T16:18:04.725Z,61.60
2017-09-04T16:23:50.379Z,59.90
2017-09-04T16:26:36.524Z,61.20
2017-09-04T16:29:05.375Z,61.10
2017-09-04T16:31:38.531Z,61.80
2017-09-04T16:34:05.950Z,63.50
2017-09-04T16:36:35.736Z,60.80
2017-09-04T16:42:18.615Z,62.70
2017-09-04T16:44:46.819Z,60.20
2017-09-04T16:47:16.815Z,58.60
2017-09-04T16:49:49.838Z,60.20
2017-09-04T16:52:17.275Z,61.90
2017-09-04T16:54:44.704Z,64.20
2017-09-04T16:57:14.689Z,64.60
2017-09-04T16:59:46.262Z,64.50
2017-09-04T17:02:13.688Z,65.30
2017-09-04T17:04:41.117Z,64.70
2017-09-04T17:07:08.548Z,65.70
2017-09-04T17:09:36.401Z,65.80
2017-09-04T17:12:05.405Z,66.00
2017-09-04T17:14:32.833Z,64.50
2017-09-04T17:17:01.066Z,64.50
2017-09-04T17:19:33.173Z,66.20
2017-09-04T17:22:00.616Z,66.90
2017-09-04T17:24:28.044Z,65.50
2017-09-04T17:26:55.480Z,67.20
2017-09-04T17:29:22.924Z,67.90
2017-09-04T17:31:50.341Z,68.40
2017-09-04T17:34:17.773Z,67.40
2017-09-04T17:36:45.207Z,68.30
2017-09-04T17:39:12.636Z,69.00
2017-09-04T17:41:40.101Z,69.20
2017-09-04T17:44:07.532Z,68.70
2017-09-04T17:46:35.008Z,68.70
2017-09-04T17:49:02.432Z,69.50
2017-09-04T17:51:29.873Z,68.50
2017-09-04T17:53:57.304Z,68.90
2017-09-04T17:56:24.732Z,67.50
2017-09-04T17:58:52.170Z,67.70
2017-09-04T18:01:19.600Z,68.00
2017-09-04T18:03:50.063Z,68.00
2017-09-04T18:06:17.480Z,68.80
2017-09-04T18:08:44.939Z,68.00
2017-09-04T18:11:12.369Z,68.20
2017-09-04T18:13:39.800Z,68.40
2017-09-04T18:16:07.247Z,66.40
2017-09-04T18:18:34.681Z,65.90
2017-09-04T18:21:02.139Z,68.30
2017-09-04T18:23:29.573Z,67.10
2017-09-04T18:25:59.019Z,68.40
2017-09-04T18:28:26.464Z,68.50
2017-09-04T18:30:53.936Z,68.30
2017-09-04T18:33:21.356Z,67.40
2017-09-04T18:35:48.785Z,68.30
2017-09-04T18:38:16.220Z,68.40
2017-09-04T18:40:43.660Z,70.90
2017-09-04T18:43:11.088Z,70.00
2017-09-04T18:45:38.531Z,68.10
2017-09-04T18:48:05.998Z,70.20
2017-09-04T18:50:33.529Z,70.10
2017-09-04T18:53:02.899Z,69.10
2017-09-04T18:55:30.338Z,69.10
2017-09-04T18:57:57.884Z,69.70
2017-09-04T19:00:25.333Z,70.10
2017-09-04T19:02:52.761Z,70.80
2017-09-04T19:05:23.373Z,71.00
2017-09-04T19:07:50.792Z,69.80
2017-09-04T19:10:18.281Z,70.10
2017-09-04T19:12:45.723Z,70.10
2017-09-04T19:15:13.162Z,70.10
2017-09-04T19:17:40.593Z,70.70
2017-09-04T19:20:08.033Z,71.30
2017-09-04T19:22:35.497Z,70.60
2017-09-04T19:25:02.950Z,70.60
2017-09-04T19:27:30.360Z,70.40
2017-09-04T19:29:57.797Z,71.20
2017-09-04T19:32:25.234Z,71.90
2017-09-04T19:34:52.662Z,67.60
2017-09-04T19:37:20.092Z,68.30
2017-09-04T19:39:47.651Z,67.50
2017-09-04T19:42:15.072Z,69.10
2017-09-04T19:44:42.508Z,69.50
2017-09-04T19:47:09.938Z,69.50
2017-09-04T19:49:37.383Z,69.30
2017-09-04T19:52:04.830Z,69.80
2017-09-04T19:54:32.252Z,70.60
2017-09-04T19:56:59.681Z,70.90
2017-09-04T19:59:27.161Z,70.30
2017-09-04T20:01:54.580Z,69.40
2017-09-04T20:04:22.003Z,69.70
2017-09-04T20:06:49.485Z,69.50
2017-09-04T20:09:16.913Z,69.90
2017-09-04T20:11:44.429Z,68.30
2017-09-04T20:14:11.865Z,68.50
2017-09-04T20:16:39.291Z,69.30
2017-09-04T20:19:06.726Z,69.70
2017-09-04T20:21:34.167Z,67.30
2017-09-04T20:24:01.580Z,67.90
2017-09-04T20:26:29.018Z,70.50
2017-09-04T20:28:57.518Z,72.30
2017-09-04T20:31:24.947Z,71.20
2017-09-04T20:33:52.374Z,70.60
2017-09-04T20:36:19.952Z,68.80
2017-09-04T20:38:47.368Z,68.20
2017-09-04T20:41:14.872Z,66.30
2017-09-04T20:43:42.307Z,67.40
2017-09-04T20:46:09.738Z,68.60
2017-09-04T20:48:37.164Z,69.70
2017-09-04T20:51:04.642Z,70.00
2017-09-04T20:53:32.098Z,70.40
2017-09-04T20:55:59.529Z,72.10
2017-09-04T20:58:27.012Z,72.40
2017-09-04T21:00:54.435Z,71.00
2017-09-04T21:03:21.875Z,70.60
2017-09-04T21:05:49.299Z,72.40
2017-09-04T21:08:16.742Z,70.50
2017-09-04T21:10:44.167Z,71.10
2017-09-04T21:13:11.605Z,73.30
2017-09-04T21:15:39.035Z,74.10
2017-09-04T21:18:06.472Z,73.60
2017-09-04T21:20:33.900Z,72.30
2017-09-04T21:23:01.333Z,71.40
2017-09-04T21:25:28.777Z,72.80
2017-09-04T21:27:56.213Z,73.90
2017-09-04T21:30:23.656Z,74.60
2017-09-04T21:32:51.074Z,73.40
2017-09-04T21:35:18.536Z,73.20
2017-09-04T21:37:45.986Z,74.30
2017-09-04T21:40:13.408Z,72.80
2017-09-04T21:42:40.842Z,72.70
2017-09-04T21:45:08.270Z,73.80
2017-09-04T21:47:35.703Z,73.70
2017-09-04T21:50:03.130Z,73.60
2017-09-04T21:52:30.559Z,74.00
2017-09-04T21:54:57.984Z,74.10
2017-09-04T21:57:25.488Z,75.40
2017-09-04T21:59:52.925Z,74.40
2017-09-04T22:02:20.358Z,72.50
2017-09-04T22:04:47.796Z,72.80
2017-09-04T22:07:15.226Z,73.80
2017-09-04T22:09:42.655Z,74.70
2017-09-04T22:12:10.086Z,72.70
2017-09-04T22:14:37.517Z,73.20
2017-09-04T22:17:05.033Z,72.80
2017-09-04T22:19:32.487Z,74.60
2017-09-04T22:21:59.908Z,74.10
2017-09-04T22:24:27.341Z,73.50
2017-09-04T22:26:54.771Z,73.40
2017-09-04T22:29:22.212Z,74.10
2017-09-04T22:31:49.635Z,74.20
2017-09-04T22:34:17.073Z,74.70
2017-09-04T22:36:44.500Z,75.60
2017-09-04T22:39:11.946Z,75.20
2017-09-04T22:41:39.367Z,75.20
2017-09-04T22:44:06.808Z,75.50
2017-09-04T22:46:34.227Z,75.70
2017-09-04T22:49:01.664Z,76.30
2017-09-04T22:51:29.103Z,76.20
2017-09-04T22:53:56.545Z,76.80
2017-09-04T22:56:23.972Z,76.60
2017-09-04T22:58:51.420Z,76.60
2017-09-04T23:01:18.853Z,77.00
2017-09-04T23:03:46.281Z,77.50
2017-09-04T23:06:13.736Z,77.70
2017-09-04T23:08:41.412Z,77.10
2017-09-04T23:11:08.873Z,77.50
2017-09-04T23:13:36.299Z,77.70
2017-09-04T23:16:03.741Z,78.20
2017-09-04T23:18:31.196Z,77.80
2017-09-04T23:20:58.651Z,78.30
2017-09-04T23:23:26.064Z,79.30
2017-09-04T23:25:53.502Z,79.10
2017-09-04T23:28:20.923Z,79.20
2017-09-04T23:30:48.360Z,79.50
2017-09-04T23:33:15.780Z,79.70
2017-09-04T23:35:43.211Z,79.90
2017-09-04T23:38:10.648Z,79.90
2017-09-04T23:40:38.079Z,79.70
2017-09-04T23:43:05.504Z,80.00
2017-09-04T23:45:32.941Z,79.60
2017-09-04T23:48:00.374Z,80.40
2017-09-04T23:50:27.812Z,80.40
2017-09-04T23:52:55.236Z,79.00
2017-09-04T23:55:22.664Z,78.60
2017-09-04T23:57:50.098Z,79.30
